默认 日期 大小 文件数 浏览量 最新下载 xml
last磁力链接相关资源由用户搜索指令自动获取,结果来源于网络,本站不存储任何资料,亦不承担任何责任,请于24小时内删除,搜索到94736个磁力,显示前4000条数据,用时53ms。
    ... .org .txt": 129, "Autopsy The Last Hours of S13E03 Eddie Guerrero ... -NGP.mkv": 2868392768, "Autopsy The Last Hours of S13E03 Eddie Guerrero ...
创建时间: 2026-05-06 11:43:44 大小:2.67 GB 文件数量:3 热度:0
    ... ": 3644, "PCGAME-Quarantine.Zone.The.Last.Check.Update.v1.1.13 ... ": 1048576000, "PCGAME-Quarantine.Zone.The.Last.Check.Update.v1.1.13 ... ": 1048576000, "PCGAME-Quarantine.Zone.The.Last.Check.Update.v1.1.13 ...
创建时间: 2026-05-06 11:14:44 大小:2.23 GB 文件数量:4 热度:0
    ... Days.mkv": 1568674993, "The Last of Us - S02E01 - Future ... - Convergence.mkv": 1077463414, "The Last of Us - S02E07 - Convergence.srt ... ": 25876, "The Last of Us - S02E05 - Feel Her ... x265 Ghost).mkv": 2672769140, "The Last of Us (2023) - S01E02 ...
创建时间: 2026-05-06 11:06:00 大小:33.49 GB 文件数量:32 热度:0
    {"The Last Seduction (1994) Extended Cut (1080p RM4K Bluray x265 10bit r00t).mkv": 9765729977}
创建时间: 2026-05-06 11:04:05 大小:9.1 GB 文件数量:1 热度:0
    {"Torrent Downloaded From XXXClub.to .nfo": 34, "vampired.26.03.20.clemence.audiard.leana.lovings.and.lucy.mochi.the.last.woman.on.earth.2.480p.mp4": 238944403}
创建时间: 2026-05-06 10:01:16 大小:227.88 MB 文件数量:2 热度:0
    ... BlackTV.mkv": 556774667, "A.Wild.Last.Boss.Appeared.S01E02.1080p.KKTV ... .mkv": 707217175, "A.Wild.Last.Boss.Appeared.S01E03.1080p.KKTV ... .mkv": 709799909, "A.Wild.Last.Boss.Appeared.S01E04.1080p.KKTV ... .mkv": 655449548, "A.Wild.Last.Boss.Appeared.S01E05.1080p.KKTV ...
创建时间: 2026-05-06 09:31:20 大小:7.2 GB 文件数量:15 热度:0
    ... UIndex.org .txt": 129, "The.Last.Cowboy.S05E02.1080p.HEVC.x265 ... -MeGusta.mkv": 659150996, "The.Last.Cowboy.S05E02.1080p.HEVC.x265 ...
创建时间: 2026-05-06 08:48:07 大小:650.65 MB 文件数量:6 热度:0
    ... .Ghosts.avi": 637476442, "The.Last.Thing.He.Told.Me.S02E03 ... .Reunion.avi": 719491788, "The.Last.Thing.He.Told.Me.S02E01 ... .Prosecutor.avi": 687492874, "The.Last.Thing.He.Told.Me.S02E08 ... Souvenirs.denfance.avi": 656449926, "The.Last.Thing.He.Told.Me.S02E05 ...
创建时间: 2026-05-05 19:58:01 大小:5 GB 文件数量:16 热度:0
    {"L9st.Man.Standing.S06E01.Papa.Bear.MULTi.1080p.WEB-DL.H264-Mixio.mkv": 1464596511, "L9st.Man.Standing.S06E13.Explorers.MULTi.1080p.WEB-DL.H264-Mixio.mkv": 1461635891, "L9st.Man.Standing.S06E15.The.Fixer.MULTi.1080p.WEB-DL.H264-Mixio.mkv": 1461800829, " ...
创建时间: 2026-05-05 19:45:41 大小:29.99 GB 文件数量:22 热度:0
    {"hackstore.url": 123, "Hunter.X.Hunter.The.Last.Mission.2013.1080P-Dual-Lat.mkv": 2040968558, "Hunter.X.Hunter.The.Last.Mission.2013.1080P-Dual-Lat_Track04.srt": 78768}
创建时间: 2026-05-05 19:29:11 大小:1.9 GB 文件数量:3 热度:0
    {"Torrent Downloaded From UIndex.org .txt": 129, "24 in 24 Last Chef Standing S02E01 Shift 1 Speed 1080p MAX WEB-DL DDP2 0 H 264-STC.mkv": 3400590435, "24 in 24 Last Chef Standing S02E01 Shift 1 Speed 1080p MAX WEB-DL DDP2 0 H 264-STC.nfo": 5247}
创建时间: 2026-05-05 17:53:20 大小:3.17 GB 文件数量:3 热度:0
    ... From UIndex.org .txt": 127, "Last.Week.Tonight.with.John.Oliver ... .HEVC.x265-MeGusta.mkv": 248144536, "Last.Week.Tonight.with.John.Oliver ...
创建时间: 2026-05-05 17:14:21 大小:247.71 MB 文件数量:6 热度:0
    ... From UIndex.org .txt": 127, "Last Week Tonight with John Oliver ... H 264-Kitsune.mkv": 2962932756, "Last Week Tonight with John Oliver ...
创建时间: 2026-05-05 17:12:35 大小:2.76 GB 文件数量:3 热度:0
    {"Torrent Downloaded From UIndex.org .txt": 127, "Full Swing S04E04 The Last Stand 2160p NF WEB-DL DDP5 1 Atmos H 265-FLUX.mkv": 7473766402, "Full Swing S04E04 The Last Stand 2160p NF WEB-DL DDP5 1 Atmos H 265-FLUX.mkv.nfo": 1229}
创建时间: 2026-05-05 15:51:35 大小:6.96 GB 文件数量:3 热度:0
    {"MD5": {"QuickSFV.EXE": 103424, "QuickSFV.ini": 155, "fitgirl-bins.md5": 315}, "fg-01.bin": 10567199880, "fg-02.bin": 1166264769, "fg-03.bin": 32978384, "fg-04.bin": 7126061, "setup.exe": 14332759, "fg-optional-bonus-soundtrack.bin": 140052258, "Verify ...
创建时间: 2026-05-05 15:42:46 大小:11.11 GB 文件数量:10 热度:0
    ... ": 107128320, "UnityCrashHandler64.exe": 1114136, "The Last Case of Benedict Fox.exe ... ": 666624, "The Last Case of Benedict Fox_Data": {"level0 ...
创建时间: 2026-05-05 15:26:48 大小:8.45 GB 文件数量:1831 热度:0
    {"YTSProxies.com.txt": 840, "YTS.BZ - Official site.jpg": 38690, "The.Last.Days.1998.1080p.BluRay.x264.AAC-[YTS.BZ].mp4": 1561886043}
创建时间: 2026-05-05 13:17:26 大小:1.45 GB 文件数量:3 热度:0
    ... From UIndex.org .txt": 129, "Last Man Standing 2011 S08E16 Along ... H 264-FLUX.mkv": 1432837486, "Last Man Standing 2011 S08E16 Along ...
创建时间: 2026-05-05 13:14:36 大小:1.33 GB 文件数量:3 热度:0
    {"Star.Wars.The.Last.Jedi.2017.BRRip.XviD ... FuN": {"Star.Wars.The.Last.Jedi.2017.BRRip.XviD.AC3 ... ": 1794327296, "Star.Wars.The.Last.Jedi.2017.BRRip.XviD.AC3 ... 4918, "Star.Wars.The.Last.Jedi.2017.BRRip.XviD.AC3 ... , "Sample-Star.Wars.The.Last.Jedi.2017.BRRip.XviD.AC3 ...
创建时间: 2026-05-05 09:52:25 大小:1.73 GB 文件数量:4 热度:0
    {"Torrent Downloaded From UIndex.org .txt": 127, "Will Trent S04E16 Our Last Dance 1080p AMZN WEB-DL DDP5 1 H 264-NTb.mkv": 3208505913, "Will Trent S04E16 Our Last Dance 1080p AMZN WEB-DL DDP5 1 H 264-NTb.mkv.nfo": 859}
创建时间: 2026-05-05 09:05:10 大小:2.99 GB 文件数量:3 热度:0